Time;durP1;ratioP1;P1;durP2;ratioP2;P2;SDS_P1;SDS_P2;PMS_P1;PMS_P2;Temp;Humidity;BMP_temperature;BMP_pressure;BME280_temperature;BME280_humidity;BME280_pressure;Samples;Min_cycle;Max_cycle;Signal;HPM_P1;HPM_P2
2022/03/04 00:02:15;;;;;;;;;;;;;;;13.17;42.40;101212.66;4921843;28;99181;-63
2022/03/04 00:04:42;;;;;;;;;;;;;;;13.17;42.45;101218.09;4902479;28;127583;-63
2022/03/04 00:07:07;;;;;;;;;;;;;;;13.18;42.39;101217.00;4917175;28;97917;-64
2022/03/04 00:09:33;;;;;;;;;;;;;;;13.17;42.43;101212.66;4940352;28;126285;-70
2022/03/04 00:12:02;;;;;;;;;;;;;;;13.17;42.33;101213.47;4940103;28;126255;-71
2022/03/04 00:14:28;;;;;;;;;;;;;;;13.18;42.46;101219.69;4921242;28;97820;-64
2022/03/04 00:16:54;;;;;;;;;;;;;;;13.18;42.42;101227.81;4922115;28;97888;-64
2022/03/04 00:19:20;;;;;;;;;;;;;;;13.18;42.50;101219.69;4920786;28;127305;-63
2022/03/04 00:21:48;;;;;;;;;;;;;;;13.17;42.30;101221.59;4920412;28;126811;-71
2022/03/04 00:24:15;;;;;;;;;;;;;;;13.18;42.51;101227.81;4925141;28;98291;-64
2022/03/04 00:26:41;;;;;;;;;;;;;;;13.19;42.55;101221.31;4940444;28;119713;-71
2022/03/04 00:29:07;;;;;;;;;;;;;;;13.18;42.39;101233.25;4940343;28;122262;-71
2022/03/04 00:31:33;;;;;;;;;;;;;;;13.19;42.43;101222.13;4940893;28;119536;-63
2022/03/04 00:33:59;;;;;;;;;;;;;;;13.18;42.43;101223.22;4919815;28;97981;-63
2022/03/04 00:36:26;;;;;;;;;;;;;;;13.19;42.43;101224.03;4920739;28;98148;-63
2022/03/04 00:38:53;;;;;;;;;;;;;;;13.19;42.59;101229.44;4903531;28;99099;-64
2022/03/04 00:41:20;;;;;;;;;;;;;;;13.19;42.47;101232.97;4920685;28;112451;-71
2022/03/04 00:43:45;;;;;;;;;;;;;;;13.19;42.29;101232.16;4920981;28;110814;-63
2022/03/04 00:46:12;;;;;;;;;;;;;;;13.20;42.49;101220.22;4919746;28;120366;-71
2022/03/04 00:48:38;;;;;;;;;;;;;;;13.19;42.54;101224.03;4922291;28;98229;-64
2022/03/04 00:51:04;;;;;;;;;;;;;;;13.19;42.68;101224.03;4939777;28;127233;-63
2022/03/04 00:53:30;;;;;;;;;;;;;;;13.19;42.42;101221.31;4940122;28;127046;-71
2022/03/04 00:55:57;;;;;;;;;;;;;;;13.19;42.68;101224.03;4940422;28;98059;-64
2022/03/04 00:58:23;;;;;;;;;;;;;;;13.19;42.77;101226.75;4921878;28;99250;-64
2022/03/04 01:00:49;;;;;;;;;;;;;;;13.18;42.69;101225.94;4922035;28;118670;-64
2022/03/04 01:03:14;;;;;;;;;;;;;;;13.18;42.59;101219.69;4920121;28;124107;-70
2022/03/04 01:05:40;;;;;;;;;;;;;;;13.18;42.63;101219.69;4939382;28;122374;-64
2022/03/04 01:08:07;;;;;;;;;;;;;;;13.17;42.47;101232.44;4939987;28;128930;-64
2022/03/04 01:10:33;;;;;;;;;;;;;;;13.17;42.69;101229.72;4921530;28;98777;-72
2022/03/04 01:12:59;;;;;;;;;;;;;;;13.17;42.88;101226.22;4939391;28;120532;-64
2022/03/04 01:15:25;;;;;;;;;;;;;;;13.16;42.60;101228.06;4904973;28;123652;-63
2022/03/04 01:17:51;;;;;;;;;;;;;;;13.17;42.79;101223.50;4939702;28;129032;-63
2022/03/04 01:20:17;;;;;;;;;;;;;;;13.16;42.74;101222.66;4921388;28;127297;-70
2022/03/04 01:22:43;;;;;;;;;;;;;;;13.17;42.60;101226.22;4920761;28;127747;-64
2022/03/04 01:25:09;;;;;;;;;;;;;;;13.15;42.70;101215.63;4921091;28;107052;-63
2022/03/04 01:27:35;;;;;;;;;;;;;;;13.16;42.66;101224.56;4938845;28;119387;-72
2022/03/04 01:30:01;;;;;;;;;;;;;;;13.16;42.70;101221.84;4938858;28;128539;-71
2022/03/04 01:32:27;;;;;;;;;;;;;;;13.15;42.84;101221.03;4904499;28;103683;-70
2022/03/04 01:34:53;;;;;;;;;;;;;;;13.15;42.90;101221.03;4919341;28;119782;-71
2022/03/04 01:37:19;;;;;;;;;;;;;;;13.16;42.62;101221.84;4900849;28;127482;-70
2022/03/04 01:39:45;;;;;;;;;;;;;;;13.16;42.70;101221.84;4919550;28;127898;-63
2022/03/04 01:42:11;;;;;;;;;;;;;;;13.15;42.63;101229.16;4920501;28;114182;-64
2022/03/04 01:44:37;;;;;;;;;;;;;;;13.15;42.86;101226.44;4920694;28;97947;-63
2022/03/04 01:47:03;;;;;;;;;;;;;;;13.15;42.67;101225.63;4929761;28;98667;-64
2022/03/04 01:49:29;;;;;;;;;;;;;;;13.16;42.69;101221.84;4940100;28;98607;-63
2022/03/04 01:51:55;;;;;;;;;;;;;;;13.14;42.82;101216.72;4926175;28;128229;-71
2022/03/04 01:54:21;;;;;;;;;;;;;;;13.15;42.91;101212.09;4919520;28;123059;-63
2022/03/04 01:56:47;;;;;;;;;;;;;;;13.14;42.90;101218.59;4918653;28;129526;-71
2022/03/04 01:59:13;;;;;;;;;;;;;;;13.14;42.93;101216.72;4922835;28;126750;-63
2022/03/04 02:01:39;;;;;;;;;;;;;;;13.14;43.01;101218.59;4938469;28;128201;-71
2022/03/04 02:04:05;;;;;;;;;;;;;;;13.14;42.90;101218.59;4939510;28;122546;-71
2022/03/04 02:06:30;;;;;;;;;;;;;;;13.15;43.04;101217.53;4937991;28;123197;-70
2022/03/04 02:08:56;;;;;;;;;;;;;;;13.15;42.96;101214.81;4939601;28;103111;-72
2022/03/04 02:11:22;;;;;;;;;;;;;;;13.14;42.98;101210.50;4923065;28;128041;-71
2022/03/04 02:13:48;;;;;;;;;;;;;;;13.13;42.96;101206.97;4935456;28;121785;-64
2022/03/04 02:16:27;;;;;;;;;;;;;;;13.13;42.94;101198.84;4937551;28;105759;-63
2022/03/04 02:18:53;;;;;;;;;;;;;;;13.13;42.95;101201.56;4938035;28;98457;-71
2022/03/04 02:21:20;;;;;;;;;;;;;;;13.13;43.00;101201.56;4939344;28;121727;-63
2022/03/04 02:23:47;;;;;;;;;;;;;;;13.11;42.95;101201.00;4939333;28;98031;-71
2022/03/04 02:26:13;;;;;;;;;;;;;;;13.11;43.03;101200.19;4938522;28;120270;-71
2022/03/04 02:28:39;;;;;;;;;;;;;;;13.11;42.96;101202.91;4925327;28;126121;-64
2022/03/04 02:31:05;;;;;;;;;;;;;;;13.11;43.02;101200.19;4918383;28;97967;-63
2022/03/04 02:33:31;;;;;;;;;;;;;;;13.10;43.08;101202.09;4921176;28;97770;-64
2022/03/04 02:35:57;;;;;;;;;;;;;;;13.09;43.01;101194.25;4920263;28;128891;-64
2022/03/04 02:38:23;;;;;;;;;;;;;;;13.10;42.78;101199.38;4922122;28;129270;-64
2022/03/04 02:40:49;;;;;;;;;;;;;;;13.09;43.14;101203.16;4922601;28;113413;-63
2022/03/04 02:43:15;;;;;;;;;;;;;;;13.10;43.08;101201.28;4922796;28;109385;-63
2022/03/04 02:45:40;;;;;;;;;;;;;;;13.09;43.16;101205.06;4922319;28;103078;-64
2022/03/04 02:48:06;;;;;;;;;;;;;;;13.09;43.11;101202.38;4922924;28;123866;-63
2022/03/04 02:50:32;;;;;;;;;;;;;;;13.09;43.17;101213.19;4936766;28;128034;-70
2022/03/04 02:52:58;;;;;;;;;;;;;;;13.09;43.13;101216.69;4942489;28;123547;-64
2022/03/04 02:55:24;;;;;;;;;;;;;;;13.08;43.29;101206.94;4939824;28;128375;-70
2022/03/04 02:57:50;;;;;;;;;;;;;;;13.08;43.29;101216.94;4921144;28;130353;-64
2022/03/04 03:00:17;;;;;;;;;;;;;;;13.07;43.42;101215.34;4921540;28;121029;-70
2022/03/04 03:02:43;;;;;;;;;;;;;;;13.08;43.22;101211.53;4923553;28;97934;-70
2022/03/04 03:05:09;;;;;;;;;;;;;;;13.08;43.26;101206.94;4934576;28;100869;-63
2022/03/04 03:07:35;;;;;;;;;;;;;;;13.08;43.20;101214.25;4942302;28;98804;-69
2022/03/04 03:10:02;;;;;;;;;;;;;;;13.09;43.36;101218.59;4942095;28;121288;-64
2022/03/04 03:12:27;;;;;;;;;;;;;;;13.08;43.06;101223.19;4942624;28;97702;-71
2022/03/04 03:14:53;;;;;;;;;;;;;;;13.07;43.34;101228.88;4941084;28;98553;-71
2022/03/04 03:17:20;;;;;;;;;;;;;;;13.06;43.38;101227.25;4942193;28;126893;-64
2022/03/04 03:19:46;;;;;;;;;;;;;;;13.06;43.36;101227.25;4923740;28;98086;-71
2022/03/04 03:22:14;;;;;;;;;;;;;;;13.06;43.25;101224.53;4922067;28;122700;-64
2022/03/04 03:24:40;;;;;;;;;;;;;;;13.04;43.28;101227.50;4941991;28;98615;-64
2022/03/04 03:27:06;;;;;;;;;;;;;;;13.05;43.43;101229.13;4923103;28;123375;-70
2022/03/04 03:29:32;;;;;;;;;;;;;;;13.06;43.23;101232.66;4941958;28;119749;-70
2022/03/04 03:31:58;;;;;;;;;;;;;;;13.04;43.39;101235.63;4942802;28;98083;-71
2022/03/04 03:34:24;;;;;;;;;;;;;;;13.02;43.39;101232.38;4940015;28;127051;-71
2022/03/04 03:36:49;;;;;;;;;;;;;;;12.99;43.54;101228.28;4922602;28;128678;-70
2022/03/04 03:39:15;;;;;;;;;;;;;;;12.99;43.54;101230.19;4922506;28;127909;-71
2022/03/04 03:41:41;;;;;;;;;;;;;;;12.97;43.62;101237.78;4923057;28;123276;-63
2022/03/04 03:44:07;;;;;;;;;;;;;;;12.95;43.37;101240.72;4923702;28;98574;-63
2022/03/04 03:46:33;;;;;;;;;;;;;;;12.95;43.61;101242.63;4921454;28;127342;-63
2022/03/04 03:48:59;;;;;;;;;;;;;;;12.93;43.65;101242.91;4906079;28;127730;-69
2022/03/04 03:51:25;;;;;;;;;;;;;;;12.93;43.66;101239.34;4927463;28;121892;-64
2022/03/04 03:53:51;;;;;;;;;;;;;;;12.91;43.68;101234.22;4921061;28;127136;-70
2022/03/04 03:56:17;;;;;;;;;;;;;;;12.91;43.50;101238.81;4921919;28;106862;-70
2022/03/04 03:58:43;;;;;;;;;;;;;;;12.89;43.82;101233.69;4920861;28;121760;-64
2022/03/04 04:01:09;;;;;;;;;;;;;;;12.88;43.83;101242.84;4921700;28;121530;-63
2022/03/04 04:03:35;;;;;;;;;;;;;;;12.88;43.93;101245.56;4903997;28;98463;-71
2022/03/04 04:06:01;;;;;;;;;;;;;;;12.88;43.91;101247.47;4903864;28;98526;-70
2022/03/04 04:08:27;;;;;;;;;;;;;;;12.87;43.78;101243.94;4921707;28;115487;-63
2022/03/04 04:10:53;;;;;;;;;;;;;;;12.87;43.84;101243.94;4922273;28;97881;-63
2022/03/04 04:13:19;;;;;;;;;;;;;;;12.86;43.84;101238.81;4895975;28;100166;-63
2022/03/04 04:15:45;;;;;;;;;;;;;;;12.85;44.03;101247.97;4922231;28;118470;-63
2022/03/04 04:18:11;;;;;;;;;;;;;;;12.85;43.96;101247.97;4940190;28;128202;-71
2022/03/04 04:20:37;;;;;;;;;;;;;;;12.84;44.02;101247.16;4921190;28;122599;-71
2022/03/04 04:23:03;;;;;;;;;;;;;;;12.84;44.11;101258.00;4903129;28;127221;-63
2022/03/04 04:25:29;;;;;;;;;;;;;;;12.85;44.00;101258.78;4920801;28;98204;-63
2022/03/04 04:27:55;;;;;;;;;;;;;;;12.83;44.15;101252.84;4920464;28;127894;-63
2022/03/04 04:30:21;;;;;;;;;;;;;;;12.83;44.24;101261.78;4920623;28;122170;-70
2022/03/04 04:32:47;;;;;;;;;;;;;;;12.84;44.12;101255.28;4903052;28;119876;-65
2022/03/04 04:35:13;;;;;;;;;;;;;;;12.84;44.02;101258.00;4921111;28;98307;-64
2022/03/04 04:37:39;;;;;;;;;;;;;;;12.84;44.03;101258.00;4902174;28;127767;-69
2022/03/04 04:40:05;;;;;;;;;;;;;;;12.84;44.14;101260.69;4920652;28;121465;-70
2022/03/04 04:42:31;;;;;;;;;;;;;;;12.84;44.27;101262.59;4920198;28;121575;-64
2022/03/04 04:44:57;;;;;;;;;;;;;;;12.84;44.18;101271.50;4901946;28;128060;-64
2022/03/04 04:47:23;;;;;;;;;;;;;;;12.83;44.42;101269.91;4937932;28;127933;-70
2022/03/04 04:49:49;;;;;;;;;;;;;;;12.83;44.43;101263.66;4939812;28;121914;-64
2022/03/04 04:52:15;;;;;;;;;;;;;;;12.84;44.13;101254.47;4939519;28;128635;-64
2022/03/04 04:54:41;;;;;;;;;;;;;;;12.83;44.35;101264.47;4921006;28;127164;-63
2022/03/04 04:57:07;;;;;;;;;;;;;;;12.83;44.28;101256.38;4902349;28;98229;-70
2022/03/04 04:59:33;;;;;;;;;;;;;;;12.83;44.10;101250.97;4919780;28;123537;-69
2022/03/04 05:01:59;;;;;;;;;;;;;;;12.82;44.34;101259.34;4920860;28;98418;-70
2022/03/04 05:04:25;;;;;;;;;;;;;;;12.83;44.14;101255.56;4920643;28;98871;-71
2022/03/04 05:06:51;;;;;;;;;;;;;;;12.83;44.37;101250.97;4920654;28;98088;-70
2022/03/04 05:09:17;;;;;;;;;;;;;;;12.83;44.36;101248.25;4919649;28;123345;-70
2022/03/04 05:11:43;;;;;;;;;;;;;;;12.82;44.59;101246.63;4936474;28;126900;-70
2022/03/04 05:14:09;;;;;;;;;;;;;;;12.82;44.26;101243.94;4939999;28;98901;-63
2022/03/04 05:16:36;;;;;;;;;;;;;;;12.82;44.69;101243.13;4920523;28;98632;-63
2022/03/04 05:19:02;;;;;;;;;;;;;;;12.82;44.60;101245.81;4921897;28;113636;-70
2022/03/04 05:21:28;;;;;;;;;;;;;;;12.81;44.68;101241.47;4940188;28;98524;-63
2022/03/04 05:24:02;;;;;;;;;;;;;;;12.80;44.79;101243.34;4923439;28;98859;-71
2022/03/04 05:26:29;;;;;;;;;;;;;;;12.80;44.72;101247.97;4907238;28;98360;-69
2022/03/04 05:28:55;;;;;;;;;;;;;;;12.80;44.68;101242.56;4923140;28;98083;-69
2022/03/04 05:31:21;;;;;;;;;;;;;;;12.80;44.39;101243.34;4938545;28;126013;-63
2022/03/04 05:33:47;;;;;;;;;;;;;;;12.78;44.58;101251.75;4939460;28;122554;-69
2022/03/04 05:36:14;;;;;;;;;;;;;;;12.79;44.50;101249.84;4939667;28;97863;-69
2022/03/04 05:38:40;;;;;;;;;;;;;;;12.78;44.73;101250.94;4922783;28;98033;-70
2022/03/04 05:41:06;;;;;;;;;;;;;;;12.78;44.71;101253.66;4939312;28;98510;-63
2022/03/04 05:43:32;;;;;;;;;;;;;;;12.77;44.75;101255.53;4925030;28;98452;-69
2022/03/04 05:45:58;;;;;;;;;;;;;;;12.79;44.82;101257.97;4901142;28;116186;-63
2022/03/04 05:48:24;;;;;;;;;;;;;;;12.77;44.67;101262.81;4919182;28;123313;-63
2022/03/04 05:50:49;;;;;;;;;;;;;;;12.78;44.82;101259.06;4884849;28;127806;-63
2022/03/04 05:53:15;;;;;;;;;;;;;;;12.77;44.75;101260.94;4902756;28;128440;-69
2022/03/04 05:55:41;;;;;;;;;;;;;;;12.78;44.90;101259.06;4918581;28;128578;-63
2022/03/04 05:58:07;;;;;;;;;;;;;;;12.78;44.68;101261.75;4920575;28;98347;-69
2022/03/04 06:00:33;;;;;;;;;;;;;;;12.79;44.96;101268.78;4919350;28;127765;-63
2022/03/04 06:02:59;;;;;;;;;;;;;;;12.79;44.65;101268.78;4919664;28;98141;-63
2022/03/04 06:05:25;;;;;;;;;;;;;;;12.80;44.90;101272.31;4900194;28;128682;-63
2022/03/04 06:07:51;;;;;;;;;;;;;;;12.80;44.69;101275.00;4898995;28;99044;-63
2022/03/04 06:10:17;;;;;;;;;;;;;;;12.82;44.81;101278.28;4937922;28;126514;-69
2022/03/04 06:12:43;;;;;;;;;;;;;;;12.81;44.79;101272.06;4938602;28;128611;-69
2022/03/04 06:15:09;;;;;;;;;;;;;;;12.82;45.03;101281.81;4939055;28;127131;-63
2022/03/04 06:17:35;;;;;;;;;;;;;;;12.82;44.83;101281.81;4920362;28;122699;-69
2022/03/04 06:20:02;;;;;;;;;;;;;;;12.85;44.92;101285.84;4939579;28;98270;-70
2022/03/04 06:22:28;;;;;;;;;;;;;;;12.84;44.93;101286.94;4939942;28;99127;-69
2022/03/04 06:24:54;;;;;;;;;;;;;;;12.85;44.95;101280.44;4937932;28;98068;-69
2022/03/04 06:27:20;;;;;;;;;;;;;;;12.87;45.06;101286.41;4918646;28;121928;-69
2022/03/04 06:29:46;;;;;;;;;;;;;;;12.88;44.87;101296.16;4918741;28;127971;-69
2022/03/04 06:32:14;;;;;;;;;;;;;;;12.89;44.75;101287.78;4918741;28;128451;-69
2022/03/04 06:34:40;;;;;;;;;;;;;;;12.90;44.98;101300.25;4902258;28;98285;-63
2022/03/04 06:37:05;;;;;;;;;;;;;;;12.90;44.99;101297.53;4917775;28;109706;-69
2022/03/04 06:39:31;;;;;;;;;;;;;;;12.92;45.05;101297.25;4927818;28;111736;-69
2022/03/04 06:41:57;;;;;;;;;;;;;;;12.92;45.10;101294.56;4938416;28;128512;-63
2022/03/04 06:44:25;;;;;;;;;;;;;;;12.93;45.13;101301.59;4937946;28;129064;-63
2022/03/04 06:46:52;;;;;;;;;;;;;;;12.94;45.09;101308.66;4938315;28;97930;-63
2022/03/04 06:49:18;;;;;;;;;;;;;;;12.95;45.13;101307.56;4939467;28;98850;-69
2022/03/04 06:51:43;;;;;;;;;;;;;;;12.96;45.23;101309.19;4936941;28;127078;-69
2022/03/04 06:54:09;;;;;;;;;;;;;;;12.96;45.38;101311.88;4920356;28;115100;-63
2022/03/04 06:56:35;;;;;;;;;;;;;;;12.97;45.19;101310.84;4918212;28;123842;-69
2022/03/04 06:59:01;;;;;;;;;;;;;;;12.97;45.22;101306.25;4919522;28;127276;-63
2022/03/04 07:01:27;;;;;;;;;;;;;;;12.99;45.28;101304.06;4937478;28;128850;-64
2022/03/04 07:03:53;;;;;;;;;;;;;;;13.02;45.19;101319.78;4933927;28;127366;-70
2022/03/04 07:06:19;;;;;;;;;;;;;;;13.03;45.35;101313.28;4918724;28;98022;-68
2022/03/04 07:08:45;;;;;;;;;;;;;;;13.06;45.16;101308.44;4934594;28;98229;-69
2022/03/04 07:11:11;;;;;;;;;;;;;;;13.08;45.40;101320.63;4937970;28;128023;-69
2022/03/04 07:13:37;;;;;;;;;;;;;;;13.09;45.41;101316.84;4937902;28;127777;-63
2022/03/04 07:16:03;;;;;;;;;;;;;;;13.12;45.61;101308.19;4903756;28;98141;-69
2022/03/04 07:18:29;;;;;;;;;;;;;;;13.15;45.58;101315.78;4919182;28;120263;-63
2022/03/04 07:20:58;;;;;;;;;;;;;;;13.16;45.57;101325.53;4940285;28;98157;-63
2022/03/04 07:23:25;;;;;;;;;;;;;;;13.17;45.66;101313.63;4941723;28;115949;-63
2022/03/04 07:25:50;;;;;;;;;;;;;;;13.19;45.52;101324.19;4929014;28;122765;-69
2022/03/04 07:28:17;;;;;;;;;;;;;;;13.20;45.38;101328.53;4920928;28;127716;-63
2022/03/04 07:30:43;;;;;;;;;;;;;;;13.20;45.38;101325.81;4921784;28;108524;-69
2022/03/04 07:33:09;;;;;;;;;;;;;;;13.21;45.56;101332.88;4922445;28;98046;-63
2022/03/04 07:35:35;;;;;;;;;;;;;;;13.22;45.81;101329.09;4922241;28;98036;-69
2022/03/04 07:38:02;;;;;;;;;;;;;;;13.22;45.97;101338.00;4921682;28;98964;-63
2022/03/04 07:40:28;;;;;;;;;;;;;;;13.23;45.94;101331.53;4922631;28;99319;-68
2022/03/04 07:42:54;;;;;;;;;;;;;;;13.25;45.70;101334.00;4920877;28;128533;-63
2022/03/04 07:45:20;;;;;;;;;;;;;;;13.28;45.98;101347.00;4921700;28;123514;-68
2022/03/04 07:47:46;;;;;;;;;;;;;;;13.27;45.92;101354.31;4903504;28;101046;-70
2022/03/04 07:50:13;;;;;;;;;;;;;;;13.30;46.01;101354.88;4922054;28;98031;-70
2022/03/04 07:52:39;;;;;;;;;;;;;;;13.33;46.06;101346.22;4923748;28;101121;-63
2022/03/04 07:55:06;;;;;;;;;;;;;;;13.35;46.00;101354.88;4941737;28;117175;-70
2022/03/04 07:57:32;;;;;;;;;;;;;;;13.35;46.17;101346.75;4922646;28;98828;-63
2022/03/04 07:59:58;;;;;;;;;;;;;;;13.34;46.10;101359.50;4934507;28;127801;-63
2022/03/04 08:02:24;;;;;;;;;;;;;;;13.34;46.17;101358.69;4921024;28;127779;-69
2022/03/04 08:04:50;;;;;;;;;;;;;;;13.34;45.85;101367.63;4922010;28;98007;-68
2022/03/04 08:07:17;;;;;;;;;;;;;;;13.35;46.20;101363.00;4920047;28;127848;-63
2022/03/04 08:09:43;;;;;;;;;;;;;;;13.35;46.20;101363.81;4921623;28;98042;-68
2022/03/04 08:12:09;;;;;;;;;;;;;;;13.36;46.18;101370.03;4920928;28;127758;-63
2022/03/04 08:14:35;;;;;;;;;;;;;;;13.36;46.14;101367.34;4921475;28;97695;-63
2022/03/04 08:17:02;;;;;;;;;;;;;;;13.35;46.27;101363.00;4920219;28;121576;-63
2022/03/04 08:19:28;;;;;;;;;;;;;;;13.36;46.33;101364.63;4920781;28;118903;-69
2022/03/04 08:21:54;;;;;;;;;;;;;;;13.36;46.43;101376.31;4930030;28;99046;-64
2022/03/04 08:24:19;;;;;;;;;;;;;;;13.38;46.45;101376.84;4922731;28;122361;-68
2022/03/04 08:26:45;;;;;;;;;;;;;;;13.40;46.47;101373.84;4921128;28;128496;-63
2022/03/04 08:29:11;;;;;;;;;;;;;;;13.41;46.36;101375.50;4940741;28;121061;-68
2022/03/04 08:31:37;;;;;;;;;;;;;;;13.44;46.30;101369.53;4941030;28;98281;-63
2022/03/04 08:34:03;;;;;;;;;;;;;;;13.46;46.43;101375.53;4923825;28;106602;-64
2022/03/04 08:36:29;;;;;;;;;;;;;;;13.48;46.40;101371.47;4920104;28;120153;-68
2022/03/04 08:38:55;;;;;;;;;;;;;;;13.53;46.54;101372.56;4921211;28;99001;-68
2022/03/04 08:41:21;;;;;;;;;;;;;;;13.58;46.32;101380.72;4920394;28;117071;-68
2022/03/04 08:43:47;;;;;;;;;;;;;;;13.63;46.45;101380.72;4920726;28;97807;-64
2022/03/04 08:46:14;;;;;;;;;;;;;;;13.68;46.37;101378.06;4921144;28;98405;-68
2022/03/04 08:48:43;;;;;;;;;;;;;;;13.72;46.40;101382.66;4921289;28;98367;-68
2022/03/04 08:51:09;;;;;;;;;;;;;;;13.75;46.52;101371.31;4920986;28;101019;-63
2022/03/04 08:53:35;;;;;;;;;;;;;;;13.83;46.50;101378.06;4920155;28;123380;-69
2022/03/04 08:56:01;;;;;;;;;;;;;;;13.93;46.33;101377.31;4922076;28;108584;-63
2022/03/04 08:58:27;;;;;;;;;;;;;;;14.03;46.32;101379.19;4920876;28;98376;-68
2022/03/04 09:00:53;;;;;;;;;;;;;;;14.06;46.16;101376.78;4920958;28;115472;-68
2022/03/04 09:03:19;;;;;;;;;;;;;;;14.09;46.63;101381.66;4920277;28;122821;-68
2022/03/04 09:05:45;;;;;;;;;;;;;;;14.14;46.47;101381.66;4921509;28;118775;-69
2022/03/04 09:08:11;;;;;;;;;;;;;;;14.19;46.83;101378.97;4920249;28;113798;-69
2022/03/04 09:10:37;;;;;;;;;;;;;;;14.23;46.73;101377.34;4920203;28;97904;-69
2022/03/04 09:13:04;;;;;;;;;;;;;;;14.24;46.77;101386.31;4920362;28;123184;-63
2022/03/04 09:15:30;;;;;;;;;;;;;;;14.23;46.78;101390.91;4924125;28;98660;-67
2022/03/04 09:17:56;;;;;;;;;;;;;;;14.25;46.96;101390.63;4939830;28;121622;-63
2022/03/04 09:20:24;;;;;;;;;;;;;;;14.24;46.84;101383.59;4921228;28;115214;-69
2022/03/04 09:22:50;;;;;;;;;;;;;;;14.26;46.99;101389.53;4906534;28;98123;-69
2022/03/04 09:25:16;;;;;;;;;;;;;;;14.27;47.00;101387.66;4922185;28;98768;-68
2022/03/04 09:27:43;;;;;;;;;;;;;;;14.25;47.13;101390.63;4939110;28;98442;-68
2022/03/04 09:30:11;;;;;;;;;;;;;;;14.24;46.96;101392.53;4939929;28;97954;-63
2022/03/04 09:32:37;;;;;;;;;;;;;;;14.24;46.98;101394.44;4940127;28;97979;-63
2022/03/04 09:35:03;;;;;;;;;;;;;;;14.21;46.97;101387.66;4939252;28;121539;-64
2022/03/04 09:37:29;;;;;;;;;;;;;;;14.22;47.24;101394.69;4925107;28;98935;-63
2022/03/04 09:39:55;;;;;;;;;;;;;;;14.23;47.44;101398.25;4922493;28;107438;-67
2022/03/04 09:42:22;;;;;;;;;;;;;;;14.22;47.24;101397.41;4938308;28;122950;-63
2022/03/04 09:44:48;;;;;;;;;;;;;;;14.24;47.06;101389.81;4906051;28;98412;-69
2022/03/04 09:47:15;;;;;;;;;;;;;;;14.28;47.17;101392.81;4911940;28;98375;-69
2022/03/04 09:49:41;;;;;;;;;;;;;;;14.27;47.47;101395.81;4901696;28;114031;-69
2022/03/04 09:52:08;;;;;;;;;;;;;;;14.28;47.53;101398.25;4901441;28;121387;-63
2022/03/04 09:54:34;;;;;;;;;;;;;;;14.26;47.45;101389.53;4919362;28;98965;-69
2022/03/04 09:57:00;;;;;;;;;;;;;;;14.25;47.60;101396.88;4924237;28;128026;-70
2022/03/04 09:59:26;;;;;;;;;;;;;;;14.23;47.56;101398.25;4931187;28;97836;-63
2022/03/04 10:01:52;;;;;;;;;;;;;;;14.22;47.62;101397.41;4919426;28;122602;-68
2022/03/04 10:04:18;;;;;;;;;;;;;;;14.26;47.80;101403.09;4901331;28;127796;-63
2022/03/04 10:06:49;;;;;;;;;;;;;;;14.28;47.56;101403.66;4919287;28;128395;-63
2022/03/04 10:09:33;;;;;;;;;;;;;;;14.29;47.48;101397.16;4919623;28;98163;-63
2022/03/04 10:12:03;;;;;;;;;;;;;;;14.30;47.64;101406.09;4919933;28;97918;-69
2022/03/04 10:14:29;;;;;;;;;;;;;;;14.29;47.40;101408.00;4919848;28;98816;-69
2022/03/04 10:16:56;;;;;;;;;;;;;;;14.30;47.69;101403.38;4918977;28;128077;-69
2022/03/04 10:19:23;;;;;;;;;;;;;;;14.35;47.39;101397.97;4927969;28;98321;-69
2022/03/04 10:21:56;;;;;;;;;;;;;;;14.42;47.24;101393.91;4920093;28;97799;-63
2022/03/04 10:24:30;;;;;;;;;;;;;;;14.48;47.20;101394.72;4919652;28;98410;-68
2022/03/04 10:27:07;;;;;;;;;;;;;;;14.53;47.48;101393.94;4920392;28;98472;-63
2022/03/04 10:29:34;;;;;;;;;;;;;;;14.61;47.11;101399.63;4933593;28;115422;-63
2022/03/04 10:32:10;;;;;;;;;;;;;;;14.65;47.41;101398.00;4938760;28;114693;-63
2022/03/04 10:34:48;;;;;;;;;;;;;;;14.72;47.08;101397.72;4922632;28;98449;-69
2022/03/04 10:37:15;;;;;;;;;;;;;;;14.82;47.08;101386.88;4939522;28;97810;-63
2022/03/04 10:40:06;;;;;;;;;;;;;;;14.92;47.46;101388.75;4906077;28;98108;-68
2022/03/04 10:42:38;;;;;;;;;;;;;;;15.08;47.27;101392.25;4919761;28;97916;-63
2022/03/04 10:45:12;;;;;;;;;;;;;;;15.20;47.11;101393.56;4919990;28;97724;-63
2022/03/04 10:47:52;;;;;;;;;;;;;;;15.27;46.83;101397.91;4919218;28;99427;-63
2022/03/04 10:50:33;;;;;;;;;;;;;;;15.34;47.23;101406.59;4937215;28;98023;-63
2022/03/04 10:53:01;;;;;;;;;;;;;;;15.36;47.13;101402.47;4939971;28;97839;-63
2022/03/04 10:55:39;;;;;;;;;;;;;;;15.44;47.33;101398.38;4920512;28;98740;-68
2022/03/04 10:58:07;;;;;;;;;;;;;;;15.58;46.90;101399.44;4942730;28;98384;-69
2022/03/04 11:00:35;;;;;;;;;;;;;;;15.67;47.13;101389.63;4924877;28;98384;-68
2022/03/04 11:03:02;;;;;;;;;;;;;;;15.74;46.89;101391.25;4922884;28;97653;-63
2022/03/04 11:05:28;;;;;;;;;;;;;;;15.82;46.72;101388.75;4922079;28;99042;-69
2022/03/04 11:07:54;;;;;;;;;;;;;;;15.90;46.79;101385.44;4922820;28;98436;-68
2022/03/04 11:10:20;;;;;;;;;;;;;;;16.02;46.62;101384.28;4933742;28;112786;-68
2022/03/04 11:12:50;;;;;;;;;;;;;;;16.06;47.01;101386.16;4943083;28;97946;-68
2022/03/04 11:15:16;;;;;;;;;;;;;;;16.08;46.93;101385.88;4942418;28;98522;-68
2022/03/04 11:17:42;;;;;;;;;;;;;;;16.14;46.97;101385.56;4942361;28;98552;-63
2022/03/04 11:20:08;;;;;;;;;;;;;;;16.19;46.88;101385.53;4924695;28;98005;-63
2022/03/04 11:22:34;;;;;;;;;;;;;;;16.25;46.70;101391.75;4942334;28;98286;-68
2022/03/04 11:25:04;;;;;;;;;;;;;;;16.30;46.60;101380.81;4900150;28;115883;-68
2022/03/04 11:27:31;;;;;;;;;;;;;;;16.33;46.84;101380.25;4909883;28;98861;-63
2022/03/04 11:29:58;;;;;;;;;;;;;;;16.40;46.51;101379.94;4904293;28;98315;-63
2022/03/04 11:32:31;;;;;;;;;;;;;;;16.42;46.85;101377.72;4941779;28;98002;-63
2022/03/04 11:34:56;;;;;;;;;;;;;;;16.39;46.75;101381.84;4919787;28;110554;-64
2022/03/04 11:37:23;;;;;;;;;;;;;;;16.34;46.89;101379.16;4920240;28;128680;-64
2022/03/04 11:40:33;;;;;;;;;;;;;;;16.25;47.34;101383.59;4922120;28;98603;-64
2022/03/04 11:42:55;;;;;;;;;;;;;;;16.15;47.49;101394.53;4907226;28;97898;-69
2022/03/04 11:45:34;;;;;;;;;;;;;;;16.08;47.03;101383.97;4932324;28;127259;-68
2022/03/04 11:48:04;;;;;;;;;;;;;;;16.01;47.40;101388.91;4917834;28;98711;-64
2022/03/04 11:50:34;;;;;;;;;;;;;;;15.95;47.66;101392.75;4918800;28;98004;-63
2022/03/04 11:53:17;;;;;;;;;;;;;;;15.89;47.57;101385.72;4918461;28;113958;-69
2022/03/04 11:56:10;;;;;;;;;;;;;;;15.82;47.28;101388.75;4926048;28;98648;-69
2022/03/04 11:58:54;;;;;;;;;;;;;;;15.75;47.57;101385.50;4918732;28;98920;-63
2022/03/04 12:01:33;;;;;;;;;;;;;;;15.71;47.71;101393.41;4927583;28;98743;-69
2022/03/04 12:04:17;;;;;;;;;;;;;;;15.68;47.70;101398.63;4890276;28;98075;-64
2022/03/04 12:07:04;;;;;;;;;;;;;;;15.66;47.79;101400.78;4920023;28;99404;-64
2022/03/04 12:09:30;;;;;;;;;;;;;;;15.63;47.50;101396.69;4918383;28;98589;-63
2022/03/04 12:12:21;;;;;;;;;;;;;;;15.62;47.75;101395.06;4917482;28;98009;-69
2022/03/04 12:14:48;;;;;;;;;;;;;;;15.63;47.54;101390.44;4918961;28;98051;-64
2022/03/04 12:17:15;;;;;;;;;;;;;;;15.64;47.63;101390.19;4925670;28;98632;-69
2022/03/04 12:19:41;;;;;;;;;;;;;;;15.67;47.57;101388.81;4917819;28;98366;-64
2022/03/04 12:22:07;;;;;;;;;;;;;;;15.73;47.17;101389.63;4899424;28;98164;-64
2022/03/04 12:24:34;;;;;;;;;;;;;;;15.76;47.06;101389.03;4917800;28;98324;-64
2022/03/04 12:27:00;;;;;;;;;;;;;;;15.80;47.10;101385.50;4917323;28;99084;-69
2022/03/04 12:29:46;;;;;;;;;;;;;;;15.85;47.26;101390.91;4899712;28;99407;-69
2022/03/04 12:32:12;;;;;;;;;;;;;;;15.91;46.95;101394.41;4918100;28;97860;-63